createdAt,value
2019-01-20T00:03:13.882Z,81.02
2019-01-20T00:08:18.131Z,80.79
2019-01-20T00:13:22.685Z,81.48
2019-01-20T00:18:27.186Z,81.57
2019-01-20T00:23:31.426Z,81.56
2019-01-20T00:28:55.078Z,81.19
2019-01-20T00:33:59.301Z,81.41
2019-01-20T00:55:04.845Z,81.92
2019-01-20T01:00:51.711Z,81.90
2019-01-20T01:16:27.774Z,81.23
2019-01-20T01:31:51.746Z,81.89
2019-01-20T01:37:15.055Z,82.41
2019-01-20T01:42:19.284Z,81.78
2019-01-20T01:47:23.518Z,81.90
2019-01-20T01:52:27.751Z,82.31
2019-01-20T02:02:42.744Z,82.94
2019-01-20T02:07:46.984Z,82.50
2019-01-20T02:13:30.859Z,82.62
2019-01-20T02:29:15.147Z,82.83
2019-01-20T02:34:38.442Z,82.32
2019-01-20T02:39:43.131Z,82.27
2019-01-20T02:45:06.377Z,82.58
2019-01-20T02:50:50.972Z,82.61
2019-01-20T02:55:55.202Z,82.77
2019-01-20T03:01:11.285Z,83.01
2019-01-20T03:06:15.519Z,83.30
2019-01-20T03:16:49.588Z,82.82
2019-01-20T03:21:53.840Z,83.48
2019-01-20T03:26:58.115Z,83.30
2019-01-20T03:32:02.383Z,83.73
2019-01-20T03:37:25.700Z,83.11
2019-01-20T03:42:29.927Z,83.00
2019-01-20T03:47:34.181Z,82.80
2019-01-20T03:52:38.414Z,83.43
2019-01-20T03:57:42.675Z,83.83
2019-01-20T04:03:04.482Z,83.11
2019-01-20T04:13:57.971Z,83.40
2019-01-20T04:24:32.002Z,83.36
2019-01-20T04:30:15.591Z,83.72
2019-01-20T04:35:19.862Z,83.86
2019-01-20T04:40:43.518Z,83.93
2019-01-20T04:51:39.931Z,83.35
2019-01-20T04:57:23.612Z,83.13
2019-01-20T05:08:32.456Z,83.14
2019-01-20T05:14:16.951Z,83.67
2019-01-20T05:19:21.523Z,83.55
2019-01-20T05:24:44.823Z,83.14
2019-01-20T05:29:49.063Z,83.67
2019-01-20T05:34:53.323Z,83.86
2019-01-20T05:45:48.225Z,83.51
2019-01-20T05:50:52.456Z,83.78
2019-01-20T05:55:56.702Z,84.04
2019-01-20T06:01:00.978Z,84.08
2019-01-20T06:06:44.863Z,84.17
2019-01-20T06:11:49.147Z,83.78
2019-01-20T06:16:53.466Z,84.74
2019-01-20T06:21:57.694Z,84.69
2019-01-20T06:27:02.011Z,84.10
2019-01-20T06:32:06.294Z,83.75
2019-01-20T06:37:10.868Z,83.98
2019-01-20T06:42:15.093Z,84.20
2019-01-20T06:47:19.343Z,83.12
2019-01-20T06:52:23.564Z,82.98
2019-01-20T06:57:27.796Z,82.97
2019-01-20T07:02:32.034Z,83.81
2019-01-20T07:07:55.180Z,84.06
2019-01-20T07:13:11.377Z,84.02
2019-01-20T07:18:15.726Z,84.00
2019-01-20T07:23:19.953Z,83.99
2019-01-20T07:28:24.184Z,84.74
2019-01-20T07:38:57.360Z,83.81
2019-01-20T07:44:21.142Z,83.52
2019-01-20T07:49:25.475Z,83.45
2019-01-20T07:59:39.866Z,83.66
2019-01-20T08:05:03.167Z,84.22
2019-01-20T08:10:48.271Z,84.20
2019-01-20T08:15:52.561Z,83.84
2019-01-20T08:20:56.799Z,83.24
2019-01-20T08:26:01.118Z,83.10
2019-01-20T08:31:24.442Z,82.75
2019-01-20T08:36:28.674Z,82.52
2019-01-20T08:41:32.939Z,81.95
2019-01-20T08:47:28.573Z,81.56
2019-01-20T08:52:33.061Z,80.81
2019-01-20T09:02:47.343Z,79.76
2019-01-20T09:07:51.579Z,79.71
2019-01-20T09:18:30.111Z,78.70
2019-01-20T09:23:34.334Z,77.31
2019-01-20T09:39:17.366Z,76.38
2019-01-20T09:44:21.608Z,76.47
2019-01-20T09:49:25.850Z,75.48
2019-01-20T09:54:49.872Z,74.06
2019-01-20T09:59:54.107Z,73.25
2019-01-20T10:04:58.376Z,73.07
2019-01-20T10:10:02.618Z,72.18
2019-01-20T10:20:36.030Z,71.20
2019-01-20T10:31:09.144Z,71.10
2019-01-20T10:36:13.440Z,69.59
2019-01-20T10:51:58.822Z,68.49
2019-01-20T10:57:22.121Z,67.49
2019-01-20T11:07:55.310Z,67.67
2019-01-20T11:23:52.263Z,66.69
2019-01-20T11:28:56.496Z,65.20
2019-01-20T11:34:19.792Z,64.75
2019-01-20T11:39:24.025Z,65.22
2019-01-20T11:44:28.261Z,64.33
2019-01-20T11:49:32.498Z,64.22
2019-01-20T11:54:36.735Z,62.98
2019-01-20T11:59:40.997Z,63.15
2019-01-20T12:04:45.228Z,63.23
2019-01-20T12:09:49.840Z,61.84
2019-01-20T12:14:54.113Z,62.86
2019-01-20T12:20:17.530Z,62.16
2019-01-20T12:25:21.875Z,61.51
2019-01-20T12:31:06.511Z,61.84
2019-01-20T12:36:29.809Z,61.01
2019-01-20T12:41:53.110Z,61.64
2019-01-20T12:46:57.393Z,61.17
2019-01-20T12:52:02.053Z,62.28
2019-01-20T12:57:25.507Z,63.51
2019-01-20T13:02:49.266Z,64.11
2019-01-20T13:07:53.640Z,65.47
2019-01-20T13:18:45.978Z,65.34
2019-01-20T13:29:13.838Z,65.75
2019-01-20T13:39:48.034Z,66.23
2019-01-20T13:50:21.434Z,67.13
2019-01-20T13:55:25.670Z,67.05
2019-01-20T14:01:09.296Z,66.58
2019-01-20T14:11:42.851Z,66.02
2019-01-20T14:21:57.617Z,65.50
2019-01-20T14:27:20.913Z,66.20
2019-01-20T14:37:54.365Z,66.32
2019-01-20T14:43:17.661Z,65.37
2019-01-20T14:48:21.916Z,66.19
2019-01-20T14:58:36.132Z,66.60
2019-01-20T15:03:59.756Z,66.41
2019-01-20T15:14:34.312Z,67.23
2019-01-20T15:19:38.555Z,67.70
2019-01-20T15:25:01.863Z,67.33
2019-01-20T15:30:46.549Z,67.35
2019-01-20T15:36:10.011Z,68.06
2019-01-20T15:41:33.668Z,68.97
2019-01-20T15:52:07.054Z,69.26
2019-01-20T15:57:11.303Z,69.88
2019-01-20T16:02:15.542Z,70.82
2019-01-20T16:12:29.888Z,71.53
2019-01-20T16:34:21.955Z,75.39
2019-01-20T16:39:38.024Z,75.53
2019-01-20T16:44:42.267Z,75.51
2019-01-20T16:49:46.521Z,74.75
2019-01-20T16:55:10.351Z,75.31
2019-01-20T17:00:34.596Z,76.05
2019-01-20T17:05:58.000Z,76.70
2019-01-20T17:11:02.545Z,76.74
2019-01-20T17:16:06.863Z,76.34
2019-01-20T17:31:49.747Z,77.06
2019-01-20T17:36:54.328Z,77.55
2019-01-20T17:52:56.662Z,78.63
2019-01-20T17:58:19.985Z,78.80
2019-01-20T18:08:39.646Z,79.42
2019-01-20T18:14:02.974Z,79.60
2019-01-20T18:24:16.616Z,79.67
2019-01-20T18:29:20.859Z,80.15
2019-01-20T18:34:25.199Z,80.69
2019-01-20T18:39:48.515Z,80.75
2019-01-20T18:44:52.791Z,80.80
2019-01-20T18:49:57.320Z,80.63
2019-01-20T18:55:01.607Z,80.81
2019-01-20T19:00:46.285Z,80.97
2019-01-20T19:11:19.519Z,81.59
2019-01-20T19:21:33.578Z,81.62
2019-01-20T19:26:39.028Z,81.93
2019-01-20T19:32:02.289Z,82.13
2019-01-20T19:37:25.591Z,81.77
2019-01-20T19:42:48.981Z,81.90
2019-01-20T19:48:04.497Z,81.34
2019-01-20T19:58:18.189Z,82.36
2019-01-20T20:03:22.530Z,82.76
2019-01-20T20:08:45.787Z,82.86
2019-01-20T20:14:09.213Z,83.29
2019-01-20T20:29:52.452Z,84.30
2019-01-20T20:35:15.761Z,82.69
2019-01-20T20:40:39.352Z,82.19
2019-01-20T20:45:43.587Z,82.67
2019-01-20T20:50:59.548Z,82.91
2019-01-20T21:01:52.515Z,83.58
2019-01-20T21:12:06.880Z,83.04
2019-01-20T21:22:59.478Z,82.92
2019-01-20T21:28:22.788Z,83.53
2019-01-20T21:33:27.069Z,82.66
2019-01-20T21:38:50.377Z,83.03
2019-01-20T21:43:54.685Z,82.67
2019-01-20T21:49:18.096Z,82.95
2019-01-20T21:54:33.894Z,83.27
2019-01-20T21:59:38.350Z,83.14
2019-01-20T22:04:42.624Z,83.65
2019-01-20T22:10:05.922Z,83.50
2019-01-20T22:20:39.073Z,83.94
2019-01-20T22:26:02.388Z,83.84
2019-01-20T22:31:06.658Z,84.02
2019-01-20T22:51:59.394Z,84.00
2019-01-20T22:57:04.042Z,83.80
2019-01-20T23:02:27.660Z,82.88
2019-01-20T23:13:19.891Z,83.87
2019-01-20T23:18:44.809Z,83.84
2019-01-20T23:24:08.179Z,84.92
2019-01-20T23:29:12.839Z,85.18
2019-01-20T23:44:55.334Z,84.34
